Time;durP1;ratioP1;P1;durP2;ratioP2;P2;SDS_P1;SDS_P2;PMS_P1;PMS_P2;Temp;Humidity;BMP_temperature;BMP_pressure;BME280_temperature;BME280_humidity;BME280_pressure;Samples;Min_cycle;Max_cycle;Signal;HPM_P1;HPM_P2
2022/12/10 00:00:29;;;;;;;41.43;24.30;;;;;;;;;;5047410;28;20209;-86
2022/12/10 00:02:56;;;;;;;24.90;17.87;;;;;;;;;;5051223;28;20210;-86
2022/12/10 00:05:23;;;;;;;21.27;15.93;;;;;;;;;;5033866;28;20225;-86
2022/12/10 00:07:52;;;;;;;21.50;15.27;;;;;;;;;;5033260;28;20229;-86
2022/12/10 00:10:19;;;;;;;20.83;15.53;;;;;;;;;;5051614;28;20653;-87
2022/12/10 00:12:46;;;;;;;21.90;15.53;;;;;;;;;;5051154;28;20213;-85
2022/12/10 00:15:13;;;;;;;19.43;13.03;;;;;;;;;;5048350;28;20594;-85
2022/12/10 00:17:40;;;;;;;19.93;13.57;;;;;;;;;;5048918;28;20213;-86
2022/12/10 00:20:08;;;;;;;15.00;10.17;;;;;;;;;;5037647;28;20616;-86
2022/12/10 00:22:35;;;;;;;10.87;7.67;;;;;;;;;;5033380;28;20212;-86
2022/12/10 00:25:03;;;;;;;10.10;6.83;;;;;;;;;;5051045;28;20260;-86
2022/12/10 00:27:31;;;;;;;10.37;7.37;;;;;;;;;;5033527;28;20259;-85
2022/12/10 00:29:58;;;;;;;14.70;8.67;;;;;;;;;;5050891;28;20233;-86
2022/12/10 00:32:25;;;;;;;10.03;7.90;;;;;;;;;;5029504;28;20199;-87
2022/12/10 00:34:52;;;;;;;6.83;6.13;;;;;;;;;;5031230;28;20600;-86
2022/12/10 00:37:19;;;;;;;13.23;10.53;;;;;;;;;;5013967;28;20708;-86
2022/12/10 00:39:46;;;;;;;11.80;9.30;;;;;;;;;;5023063;28;20791;-85
2022/12/10 00:42:15;;;;;;;8.93;7.33;;;;;;;;;;5031714;28;20202;-85
2022/12/10 00:44:42;;;;;;;13.27;11.80;;;;;;;;;;5049017;28;20217;-86
2022/12/10 00:47:09;;;;;;;11.20;9.43;;;;;;;;;;5040568;28;20214;-85
2022/12/10 00:49:36;;;;;;;8.03;6.80;;;;;;;;;;5045043;28;20614;-86
2022/12/10 00:52:03;;;;;;;9.83;6.50;;;;;;;;;;5022035;28;20593;-86
2022/12/10 00:54:29;;;;;;;13.23;8.33;;;;;;;;;;5050710;28;20210;-86
2022/12/10 00:56:56;;;;;;;19.37;11.90;;;;;;;;;;5050917;28;20202;-86
2022/12/10 00:59:25;;;;;;;18.33;11.53;;;;;;;;;;5019757;28;20207;-86
2022/12/10 01:01:52;;;;;;;14.30;9.90;;;;;;;;;;5019133;28;20213;-86
2022/12/10 01:04:19;;;;;;;14.10;10.33;;;;;;;;;;5051204;28;20222;-85
2022/12/10 01:06:47;;;;;;;15.53;10.57;;;;;;;;;;5037143;28;20206;-85
2022/12/10 01:09:17;;;;;;;38.50;27.17;;;;;;;;;;5051039;28;20228;-85
2022/12/10 01:11:46;;;;;;;23.53;17.20;;;;;;;;;;5036632;28;20217;-86
2022/12/10 01:14:17;;;;;;;41.33;28.00;;;;;;;;;;5041012;28;20213;-85
2022/12/10 01:16:46;;;;;;;52.57;34.03;;;;;;;;;;5032816;28;20233;-85
2022/12/10 01:19:13;;;;;;;45.97;30.70;;;;;;;;;;5050544;28;20202;-86
2022/12/10 01:21:40;;;;;;;28.93;20.97;;;;;;;;;;5050327;28;20578;-86
2022/12/10 01:24:08;;;;;;;25.70;19.97;;;;;;;;;;5033002;28;20205;-86
2022/12/10 01:26:35;;;;;;;21.30;15.70;;;;;;;;;;5032793;28;20206;-85
2022/12/10 01:29:04;;;;;;;13.47;11.17;;;;;;;;;;5050403;28;20592;-85
2022/12/10 01:31:32;;;;;;;10.63;8.93;;;;;;;;;;5050452;28;20214;-86
2022/12/10 01:34:01;;;;;;;10.13;7.83;;;;;;;;;;5032290;28;20653;-85
2022/12/10 01:36:30;;;;;;;18.40;9.10;;;;;;;;;;5040805;28;20214;-86
2022/12/10 01:38:58;;;;;;;11.20;9.80;;;;;;;;;;5049422;28;20226;-86
2022/12/10 01:41:27;;;;;;;10.93;7.57;;;;;;;;;;5042839;28;20220;-86
2022/12/10 01:43:57;;;;;;;40.17;25.10;;;;;;;;;;5050084;28;20202;-85
2022/12/10 01:46:26;;;;;;;36.23;19.10;;;;;;;;;;5053901;28;20210;-85
2022/12/10 01:48:53;;;;;;;19.73;14.60;;;;;;;;;;5043380;28;20305;-86
2022/12/10 01:51:22;;;;;;;15.60;10.30;;;;;;;;;;5018885;28;20241;-86
2022/12/10 01:53:49;;;;;;;11.70;9.53;;;;;;;;;;5053665;28;20209;-86
2022/12/10 01:56:18;;;;;;;15.40;12.33;;;;;;;;;;5053730;28;20214;-86
2022/12/10 01:58:45;;;;;;;16.10;10.07;;;;;;;;;;5053850;28;20206;-85
2022/12/10 02:01:15;;;;;;;18.47;11.60;;;;;;;;;;5053253;28;20205;-86
2022/12/10 02:03:53;;;;;;;14.67;10.83;;;;;;;;;;5053639;28;20213;-85
2022/12/10 02:06:38;;;;;;;19.20;10.43;;;;;;;;;;5039225;28;20207;-86
2022/12/10 02:09:11;;;;;;;13.17;10.13;;;;;;;;;;5042386;28;20202;-85
2022/12/10 02:11:43;;;;;;;8.97;7.43;;;;;;;;;;5039589;28;20268;-86
2022/12/10 02:14:14;;;;;;;10.57;7.67;;;;;;;;;;5053451;28;20596;-86
2022/12/10 02:16:45;;;;;;;27.33;17.50;;;;;;;;;;5052983;28;20216;-85
2022/12/10 02:19:17;;;;;;;26.70;18.10;;;;;;;;;;5035795;28;20615;-86
2022/12/10 02:21:48;;;;;;;21.97;15.17;;;;;;;;;;5053604;28;20268;-85
2022/12/10 02:24:18;;;;;;;21.13;11.60;;;;;;;;;;5035425;28;20201;-86
2022/12/10 02:26:48;;;;;;;10.33;7.97;;;;;;;;;;5052844;28;20217;-87
2022/12/10 02:29:18;;;;;;;20.87;14.30;;;;;;;;;;5028409;28;20207;-86
2022/12/10 02:31:48;;;;;;;14.93;12.03;;;;;;;;;;5033184;28;20214;-86
2022/12/10 02:34:16;;;;;;;17.90;11.93;;;;;;;;;;5021966;28;20217;-86
2022/12/10 02:36:44;;;;;;;24.43;14.23;;;;;;;;;;5052937;28;20201;-86
2022/12/10 02:39:13;;;;;;;18.27;12.37;;;;;;;;;;5053221;28;20214;-86
2022/12/10 02:41:43;;;;;;;15.70;11.30;;;;;;;;;;5052519;28;20283;-86
2022/12/10 02:44:14;;;;;;;22.03;13.00;;;;;;;;;;5053329;28;20284;-86
2022/12/10 02:46:44;;;;;;;31.10;17.97;;;;;;;;;;5046407;28;20214;-85
2022/12/10 02:49:13;;;;;;;10.47;8.33;;;;;;;;;;5032349;28;20616;-87
2022/12/10 02:51:40;;;;;;;44.57;22.50;;;;;;;;;;5032118;28;20234;-86
2022/12/10 02:54:28;;;;;;;41.77;22.53;;;;;;;;;;5026668;28;20209;-86
2022/12/10 02:56:59;;;;;;;25.47;14.73;;;;;;;;;;5039459;28;20650;-86
2022/12/10 02:59:30;;;;;;;27.80;17.13;;;;;;;;;;5035096;28;20210;-86
2022/12/10 03:02:04;;;;;;;17.10;7.00;;;;;;;;;;5038917;28;20205;-86
2022/12/10 03:04:36;;;;;;;11.07;8.10;;;;;;;;;;5038900;28;20685;-86
2022/12/10 03:07:08;;;;;;;22.40;10.87;;;;;;;;;;5038768;28;20210;-86
2022/12/10 03:09:37;;;;;;;17.37;11.23;;;;;;;;;;5034447;28;20202;-86
2022/12/10 03:12:10;;;;;;;11.83;8.93;;;;;;;;;;5034603;28;20210;-85
2022/12/10 03:14:38;;;;;;;77.63;37.73;;;;;;;;;;5052418;28;20206;-86
2022/12/10 03:17:07;;;;;;;54.63;30.03;;;;;;;;;;5034534;28;20213;-87
2022/12/10 03:19:37;;;;;;;34.73;19.33;;;;;;;;;;5023627;28;20260;-86
2022/12/10 03:22:05;;;;;;;29.80;19.40;;;;;;;;;;5036278;28;20212;-86
2022/12/10 03:24:34;;;;;;;9.47;7.93;;;;;;;;;;5052460;28;20206;-87
2022/12/10 03:27:02;;;;;;;8.97;5.57;;;;;;;;;;5033379;28;20206;-86
2022/12/10 03:29:34;;;;;;;5.97;5.20;;;;;;;;;;5051989;28;20206;-87
2022/12/10 03:32:02;;;;;;;5.77;4.80;;;;;;;;;;5034383;28;20214;-85
2022/12/10 03:34:30;;;;;;;7.10;5.33;;;;;;;;;;5034410;28;20614;-87
2022/12/10 03:36:58;;;;;;;6.37;5.57;;;;;;;;;;5037359;28;20206;-86
2022/12/10 03:39:26;;;;;;;7.17;4.77;;;;;;;;;;5031582;28;20252;-88
2022/12/10 03:41:53;;;;;;;13.63;6.17;;;;;;;;;;5031862;28;20226;-87
2022/12/10 03:44:29;;;;;;;8.23;6.03;;;;;;;;;;5046577;28;20209;-86
2022/12/10 03:46:56;;;;;;;9.40;6.37;;;;;;;;;;5043364;28;20297;-87
2022/12/10 03:49:24;;;;;;;8.67;7.53;;;;;;;;;;5046510;28;20685;-86
2022/12/10 03:51:52;;;;;;;16.07;11.33;;;;;;;;;;5051286;28;20684;-86
2022/12/10 03:54:19;;;;;;;31.97;21.23;;;;;;;;;;5034344;28;20206;-87
2022/12/10 03:56:55;;;;;;;20.37;12.57;;;;;;;;;;4998231;28;20202;-86
2022/12/10 03:59:22;;;;;;;14.30;9.90;;;;;;;;;;5044766;28;20676;-86
2022/12/10 04:01:49;;;;;;;12.63;9.13;;;;;;;;;;5051181;28;20225;-86
2022/12/10 04:04:16;;;;;;;12.53;7.53;;;;;;;;;;5051425;28;20209;-86
2022/12/10 04:06:43;;;;;;;8.27;6.07;;;;;;;;;;5050983;28;20202;-86
2022/12/10 04:09:13;;;;;;;10.40;7.57;;;;;;;;;;5051154;28;20216;-86
2022/12/10 04:11:40;;;;;;;9.17;6.87;;;;;;;;;;5051190;28;20652;-86
2022/12/10 04:16:53;;;;;;;11.17;8.57;;;;;;;;;;5048154;28;20230;-86
2022/12/10 04:19:20;;;;;;;10.63;8.57;;;;;;;;;;5040452;28;20206;-88
2022/12/10 04:27:21;;;;;;;17.63;15.17;;;;;;;;;;5036265;28;20228;-86
2022/12/10 04:29:48;;;;;;;14.23;12.50;;;;;;;;;;5039419;28;20261;-86
2022/12/10 04:32:15;;;;;;;14.70;12.07;;;;;;;;;;5048476;28;20209;-87
2022/12/10 04:34:42;;;;;;;11.13;8.33;;;;;;;;;;5041573;28;20229;-85
2022/12/10 04:37:10;;;;;;;7.77;6.43;;;;;;;;;;5027797;28;20732;-85
2022/12/10 04:39:39;;;;;;;14.10;12.60;;;;;;;;;;5051394;28;20202;-86
2022/12/10 04:42:07;;;;;;;10.50;9.40;;;;;;;;;;5044491;28;20198;-87
2022/12/10 04:44:34;;;;;;;15.13;12.90;;;;;;;;;;5047743;28;20632;-86
2022/12/10 04:47:01;;;;;;;11.97;7.73;;;;;;;;;;5040101;28;20213;-86
2022/12/10 04:49:28;;;;;;;9.87;7.83;;;;;;;;;;5050394;28;20594;-86
2022/12/10 04:51:56;;;;;;;11.17;7.87;;;;;;;;;;5032752;28;20244;-89
2022/12/10 04:54:24;;;;;;;9.07;7.67;;;;;;;;;;5033426;28;20297;-86
2022/12/10 04:56:53;;;;;;;10.27;7.23;;;;;;;;;;5050601;28;20210;-87
2022/12/10 04:59:19;;;;;;;10.33;7.87;;;;;;;;;;5032850;28;20270;-86
2022/12/10 05:01:46;;;;;;;12.00;8.93;;;;;;;;;;5045916;28;20210;-86
2022/12/10 05:04:16;;;;;;;10.57;8.23;;;;;;;;;;5041404;28;20612;-86
2022/12/10 05:06:44;;;;;;;12.30;9.87;;;;;;;;;;5036389;28;20229;-86
2022/12/10 05:09:11;;;;;;;10.63;7.13;;;;;;;;;;5030837;28;20209;-86
2022/12/10 05:11:38;;;;;;;10.17;8.00;;;;;;;;;;5050393;28;20312;-87
2022/12/10 05:14:07;;;;;;;10.63;8.03;;;;;;;;;;5053326;28;20640;-87
2022/12/10 05:16:34;;;;;;;11.13;8.07;;;;;;;;;;5053912;28;20213;-86
2022/12/10 05:19:01;;;;;;;13.77;10.37;;;;;;;;;;5044231;28;20217;-87
2022/12/10 05:23:27;;;;;;;11.53;7.50;;;;;;;;;;5032815;28;20627;-86
2022/12/10 05:24:16;;;;;;;7.20;6.17;;;;;;;;;;5054297;28;20210;-87
2022/12/10 05:26:43;;;;;;;6.97;5.57;;;;;;;;;;5054106;28;20264;-86
2022/12/10 05:29:13;;;;;;;11.30;7.20;;;;;;;;;;5020502;28;20600;-85
2022/12/10 05:31:40;;;;;;;9.20;6.43;;;;;;;;;;5048939;28;20234;-85
2022/12/10 05:34:08;;;;;;;12.90;7.27;;;;;;;;;;5045498;28;20212;-87
2022/12/10 05:36:35;;;;;;;9.40;8.47;;;;;;;;;;5036060;28;20700;-87
2022/12/10 05:39:02;;;;;;;28.87;21.90;;;;;;;;;;5036607;28;20213;-87
2022/12/10 05:41:31;;;;;;;34.83;28.80;;;;;;;;;;5032974;28;20213;-87
2022/12/10 05:44:01;;;;;;;11.57;10.07;;;;;;;;;;5017649;28;20636;-87
2022/12/10 05:46:31;;;;;;;18.77;11.77;;;;;;;;;;5049401;28;20562;-87
2022/12/10 05:48:58;;;;;;;18.80;12.13;;;;;;;;;;5054089;28;20202;-88
2022/12/10 05:51:27;;;;;;;15.30;10.50;;;;;;;;;;5053464;28;20249;-86
2022/12/10 05:53:55;;;;;;;11.80;9.90;;;;;;;;;;5036493;28;20209;-87
2022/12/10 05:56:23;;;;;;;14.93;11.20;;;;;;;;;;5035906;28;20271;-87
2022/12/10 05:59:00;;;;;;;12.63;9.53;;;;;;;;;;5053572;28;20268;-87
2022/12/10 06:01:31;;;;;;;15.10;12.63;;;;;;;;;;5053532;28;20208;-87
2022/12/10 06:03:59;;;;;;;17.77;14.73;;;;;;;;;;5054486;28;20214;-87
2022/12/10 06:06:28;;;;;;;16.90;14.87;;;;;;;;;;5053131;28;20213;-86
2022/12/10 06:08:55;;;;;;;16.67;14.90;;;;;;;;;;5041033;28;20210;-87
2022/12/10 06:11:22;;;;;;;14.40;12.50;;;;;;;;;;5039563;28;20284;-86
2022/12/10 06:13:49;;;;;;;52.87;30.80;;;;;;;;;;5015835;28;20301;-86
2022/12/10 06:16:17;;;;;;;74.33;54.00;;;;;;;;;;5033174;28;20260;-87
2022/12/10 06:18:45;;;;;;;22.23;15.10;;;;;;;;;;5051687;28;20201;-87
2022/12/10 06:21:14;;;;;;;15.00;11.13;;;;;;;;;;5053227;28;20214;-86
2022/12/10 06:23:43;;;;;;;75.27;41.27;;;;;;;;;;5049436;28;20214;-87
2022/12/10 06:26:11;;;;;;;266.70;150.13;;;;;;;;;;5033291;28;20260;-85
2022/12/10 06:28:38;;;;;;;103.00;69.10;;;;;;;;;;5046065;28;20581;-85
2022/12/10 06:31:06;;;;;;;71.57;52.87;;;;;;;;;;5042721;28;20242;-84
2022/12/10 06:33:33;;;;;;;31.17;25.30;;;;;;;;;;5044903;28;20595;-85
2022/12/10 06:36:05;;;;;;;53.37;41.70;;;;;;;;;;5034706;28;20201;-86
2022/12/10 06:38:32;;;;;;;17.33;13.90;;;;;;;;;;5044969;28;20234;-85
2022/12/10 06:40:59;;;;;;;36.90;28.47;;;;;;;;;;5050412;28;20205;-85
2022/12/10 06:43:28;;;;;;;37.43;29.97;;;;;;;;;;5044623;28;20255;-85
2022/12/10 06:45:55;;;;;;;46.40;37.83;;;;;;;;;;5041170;28;20221;-84
2022/12/10 06:48:22;;;;;;;50.47;42.43;;;;;;;;;;5051731;28;20210;-84
2022/12/10 06:50:49;;;;;;;52.93;47.07;;;;;;;;;;5045943;28;20237;-84
2022/12/10 06:53:17;;;;;;;41.70;37.20;;;;;;;;;;5044038;28;20198;-84
2022/12/10 06:55:44;;;;;;;80.80;66.77;;;;;;;;;;5051974;28;20586;-85
2022/12/10 06:58:11;;;;;;;53.73;44.60;;;;;;;;;;5052185;28;20213;-86
2022/12/10 07:00:40;;;;;;;47.13;40.67;;;;;;;;;;5052183;28;20201;-84
2022/12/10 07:03:09;;;;;;;45.70;37.07;;;;;;;;;;5059113;28;20209;-85
2022/12/10 07:05:36;;;;;;;50.90;45.57;;;;;;;;;;5066061;28;20308;-85
2022/12/10 07:08:03;;;;;;;44.77;36.43;;;;;;;;;;5052100;28;20202;-85
2022/12/10 07:10:31;;;;;;;36.10;32.23;;;;;;;;;;5037976;28;20213;-84
2022/12/10 07:12:58;;;;;;;23.23;20.37;;;;;;;;;;5049354;28;20254;-85
2022/12/10 07:15:27;;;;;;;18.50;16.07;;;;;;;;;;5047605;28;20202;-84
2022/12/10 07:17:53;;;;;;;13.60;12.00;;;;;;;;;;5054450;28;20214;-85
2022/12/10 07:20:20;;;;;;;12.40;10.80;;;;;;;;;;5043787;28;20206;-84
2022/12/10 07:22:47;;;;;;;11.03;9.33;;;;;;;;;;5051839;28;20228;-84
2022/12/10 07:25:15;;;;;;;24.47;17.30;;;;;;;;;;5033799;28;20344;-85
2022/12/10 07:27:43;;;;;;;21.30;18.93;;;;;;;;;;5025456;28;20627;-83
2022/12/10 07:30:12;;;;;;;28.27;21.50;;;;;;;;;;5031748;28;20206;-85
2022/12/10 07:32:38;;;;;;;18.47;15.70;;;;;;;;;;5013827;28;20230;-86
2022/12/10 07:35:06;;;;;;;17.37;15.43;;;;;;;;;;5013857;28;20199;-84
2022/12/10 07:37:34;;;;;;;19.50;17.40;;;;;;;;;;5036877;28;20198;-85
2022/12/10 07:40:01;;;;;;;18.57;16.67;;;;;;;;;;5049643;28;20209;-85
2022/12/10 07:42:31;;;;;;;17.90;16.00;;;;;;;;;;5049617;28;20205;-86
2022/12/10 07:45:00;;;;;;;13.97;12.53;;;;;;;;;;5038020;28;20233;-86
2022/12/10 07:47:28;;;;;;;18.80;16.80;;;;;;;;;;5050814;28;20214;-85
2022/12/10 07:49:55;;;;;;;33.47;29.83;;;;;;;;;;5050276;28;20235;-85
2022/12/10 07:52:23;;;;;;;34.37;29.80;;;;;;;;;;5033599;28;20233;-85
2022/12/10 07:54:50;;;;;;;27.50;24.70;;;;;;;;;;5050884;28;20644;-85
2022/12/10 07:57:17;;;;;;;19.93;17.80;;;;;;;;;;5033662;28;20209;-85
2022/12/10 07:59:44;;;;;;;14.27;12.77;;;;;;;;;;5032911;28;20681;-85
2022/12/10 08:02:13;;;;;;;13.17;11.47;;;;;;;;;;5051713;28;20217;-85
2022/12/10 08:04:40;;;;;;;13.77;12.13;;;;;;;;;;5015725;28;20598;-85
2022/12/10 08:07:07;;;;;;;11.43;10.23;;;;;;;;;;5013769;28;20217;-84
2022/12/10 08:09:36;;;;;;;12.97;11.37;;;;;;;;;;5031269;28;20210;-85
2022/12/10 08:12:03;;;;;;;13.87;11.63;;;;;;;;;;5039313;28;20711;-85
2022/12/10 08:14:34;;;;;;;14.00;11.37;;;;;;;;;;5050406;28;20206;-85
2022/12/10 08:17:01;;;;;;;13.57;10.10;;;;;;;;;;5031195;28;20256;-85
2022/12/10 08:19:30;;;;;;;15.47;12.40;;;;;;;;;;5045059;28;20205;-86
2022/12/10 08:21:57;;;;;;;14.33;12.63;;;;;;;;;;5036910;28;20213;-86
2022/12/10 08:24:24;;;;;;;13.97;12.57;;;;;;;;;;5050896;28;20767;-85
2022/12/10 08:26:51;;;;;;;14.67;13.23;;;;;;;;;;5028763;28;20209;-86
2022/12/10 08:29:18;;;;;;;10.93;9.83;;;;;;;;;;5024047;28;20205;-86
2022/12/10 08:31:45;;;;;;;11.73;9.43;;;;;;;;;;5032794;28;20234;-85
2022/12/10 08:34:14;;;;;;;13.80;12.07;;;;;;;;;;5050820;28;20212;-86
2022/12/10 08:36:43;;;;;;;14.83;11.77;;;;;;;;;;5050304;28;20689;-86
2022/12/10 08:39:14;;;;;;;16.67;12.13;;;;;;;;;;5034828;28;20253;-86
2022/12/10 08:41:43;;;;;;;15.47;11.87;;;;;;;;;;5045003;28;20288;-86
2022/12/10 08:44:10;;;;;;;13.67;11.87;;;;;;;;;;5037280;28;20688;-85
2022/12/10 08:46:37;;;;;;;13.33;10.90;;;;;;;;;;5049571;28;20693;-85
2022/12/10 08:49:04;;;;;;;14.73;9.27;;;;;;;;;;5054128;28;20205;-85
2022/12/10 08:51:33;;;;;;;13.67;9.80;;;;;;;;;;5052076;28;20242;-85
2022/12/10 08:54:02;;;;;;;13.80;9.77;;;;;;;;;;5043908;28;20201;-84
2022/12/10 08:56:29;;;;;;;14.60;10.47;;;;;;;;;;5054436;28;20213;-86
2022/12/10 08:58:56;;;;;;;15.03;10.90;;;;;;;;;;5046791;28;20570;-84
2022/12/10 09:01:23;;;;;;;14.87;10.47;;;;;;;;;;5034480;28;20210;-86
2022/12/10 09:03:50;;;;;;;19.73;15.97;;;;;;;;;;5054472;28;20202;-84
2022/12/10 09:06:19;;;;;;;24.97;18.93;;;;;;;;;;5052776;28;20312;-84
2022/12/10 09:08:47;;;;;;;15.37;13.53;;;;;;;;;;5048263;28;20240;-84
2022/12/10 09:11:20;;;;;;;15.20;10.07;;;;;;;;;;5050704;28;20214;-85
2022/12/10 09:13:47;;;;;;;15.67;11.37;;;;;;;;;;5050420;28;20217;-84
2022/12/10 09:16:15;;;;;;;18.40;11.60;;;;;;;;;;5036474;28;20220;-84
2022/12/10 09:18:45;;;;;;;17.77;11.47;;;;;;;;;;5053992;28;20200;-84
2022/12/10 09:21:16;;;;;;;16.30;14.17;;;;;;;;;;5048181;28;20213;-85
2022/12/10 09:23:44;;;;;;;16.67;11.93;;;;;;;;;;5053356;28;20688;-87
2022/12/10 09:26:15;;;;;;;13.57;8.37;;;;;;;;;;5034227;28;20236;-85
2022/12/10 09:28:45;;;;;;;12.13;8.77;;;;;;;;;;5053910;28;20213;-84
2022/12/10 09:31:17;;;;;;;12.37;7.23;;;;;;;;;;5036665;28;20694;-84
2022/12/10 09:33:45;;;;;;;10.23;8.43;;;;;;;;;;5053791;28;20205;-84
2022/12/10 09:36:14;;;;;;;12.20;10.93;;;;;;;;;;5035579;28;20230;-85
2022/12/10 09:38:43;;;;;;;14.60;7.33;;;;;;;;;;5050479;28;21077;-84
2022/12/10 09:41:33;;;;;;;18.67;14.57;;;;;;;;;;5050597;28;20214;-86
2022/12/10 09:44:04;;;;;;;12.43;7.30;;;;;;;;;;5038558;28;20190;-86
2022/12/10 09:46:39;;;;;;;14.23;8.43;;;;;;;;;;5032022;28;20206;-88
2022/12/10 09:49:12;;;;;;;14.07;9.70;;;;;;;;;;5053659;28;20753;-88
2022/12/10 09:51:39;;;;;;;11.10;7.73;;;;;;;;;;5035809;28;20996;-86
2022/12/10 09:54:16;;;;;;;9.00;6.80;;;;;;;;;;5055343;28;20679;-86
2022/12/10 09:56:44;;;;;;;22.23;11.40;;;;;;;;;;5052280;28;20209;-86
2022/12/10 09:59:17;;;;;;;15.47;9.37;;;;;;;;;;5034714;28;20206;-87
2022/12/10 10:01:44;;;;;;;12.57;6.93;;;;;;;;;;5055669;28;20716;-87
2022/12/10 10:04:14;;;;;;;15.23;8.77;;;;;;;;;;5052348;28;20681;-86
2022/12/10 10:06:45;;;;;;;24.60;14.73;;;;;;;;;;5057409;28;20209;-86
2022/12/10 10:09:14;;;;;;;28.00;11.87;;;;;;;;;;5034287;28;20240;-84
2022/12/10 10:11:42;;;;;;;21.57;10.93;;;;;;;;;;5052175;28;20233;-88
2022/12/10 10:14:15;;;;;;;18.57;10.77;;;;;;;;;;5049292;28;20208;-86
2022/12/10 10:16:46;;;;;;;19.77;11.23;;;;;;;;;;5052548;28;20199;-86
2022/12/10 10:19:17;;;;;;;15.53;8.23;;;;;;;;;;5051534;28;20763;-86
2022/12/10 10:21:46;;;;;;;14.57;6.43;;;;;;;;;;5056109;28;20208;-87
2022/12/10 10:24:16;;;;;;;24.80;10.53;;;;;;;;;;5054796;28;20296;-87
2022/12/10 10:26:43;;;;;;;9.80;7.67;;;;;;;;;;5034671;28;20288;-86
2022/12/10 10:29:13;;;;;;;11.50;8.13;;;;;;;;;;5035321;28;20202;-87
2022/12/10 10:31:43;;;;;;;15.60;9.37;;;;;;;;;;5055803;28;20258;-87
2022/12/10 10:34:15;;;;;;;15.93;9.33;;;;;;;;;;5048979;28;20212;-87
2022/12/10 10:36:42;;;;;;;21.70;11.83;;;;;;;;;;5057147;28;20196;-88
2022/12/10 10:39:12;;;;;;;36.20;22.30;;;;;;;;;;5026127;28;20682;-87
2022/12/10 10:41:40;;;;;;;37.07;24.60;;;;;;;;;;5053423;28;20257;-86
2022/12/10 10:44:14;;;;;;;32.77;19.13;;;;;;;;;;5052413;28;20268;-85
2022/12/10 10:46:44;;;;;;;26.43;17.50;;;;;;;;;;5046093;28;20212;-86
2022/12/10 10:49:20;;;;;;;20.27;11.90;;;;;;;;;;5038012;28;20231;-90
2022/12/10 10:51:48;;;;;;;26.80;13.07;;;;;;;;;;5041265;28;20229;-87
2022/12/10 10:54:34;;;;;;;17.07;10.43;;;;;;;;;;5038323;28;20701;-86
2022/12/10 10:57:05;;;;;;;19.30;11.37;;;;;;;;;;5048706;28;20209;-92
2022/12/10 10:59:34;;;;;;;26.30;17.33;;;;;;;;;;5050637;28;20650;-86
2022/12/10 11:02:06;;;;;;;20.83;11.60;;;;;;;;;;5035146;28;20267;-92
2022/12/10 11:04:38;;;;;;;11.90;10.10;;;;;;;;;;5053685;28;20197;-86
2022/12/10 11:07:20;;;;;;;34.50;21.97;;;;;;;;;;5046248;28;20216;-86
2022/12/10 11:09:47;;;;;;;8.93;7.07;;;;;;;;;;5052477;28;20584;-85
2022/12/10 11:12:28;;;;;;;12.87;6.73;;;;;;;;;;5033775;28;20252;-86
2022/12/10 11:14:56;;;;;;;17.50;10.00;;;;;;;;;;5052269;28;20588;-85
2022/12/10 11:17:26;;;;;;;15.70;7.17;;;;;;;;;;5035004;28;20260;-82
2022/12/10 11:19:59;;;;;;;13.23;7.67;;;;;;;;;;5051810;28;20219;-86
2022/12/10 11:22:28;;;;;;;13.33;8.60;;;;;;;;;;5041335;28;20213;-86
2022/12/10 11:24:55;;;;;;;17.93;13.53;;;;;;;;;;5035184;28;20213;-86
2022/12/10 11:27:33;;;;;;;14.27;9.50;;;;;;;;;;5043420;28;21153;-86
2022/12/10 11:30:03;;;;;;;9.30;7.03;;;;;;;;;;5041117;28;20209;-86
2022/12/10 11:33:13;;;;;;;14.27;9.73;;;;;;;;;;5040985;28;20230;-86
2022/12/10 11:35:48;;;;;;;20.43;10.60;;;;;;;;;;5048349;28;20201;-86
2022/12/10 11:38:22;;;;;;;18.20;12.33;;;;;;;;;;5035760;28;20314;-87
2022/12/10 11:40:51;;;;;;;30.87;18.20;;;;;;;;;;5040243;28;20209;-87
2022/12/10 11:43:27;;;;;;;113.77;48.10;;;;;;;;;;5046758;28;20267;-86
2022/12/10 11:46:07;;;;;;;43.07;21.77;;;;;;;;;;5056044;28;20208;-86
2022/12/10 11:48:48;;;;;;;47.40;27.80;;;;;;;;;;5047665;28;20233;-87
2022/12/10 11:51:21;;;;;;;22.67;12.80;;;;;;;;;;5048114;28;20303;-86
2022/12/10 11:53:59;;;;;;;31.17;17.40;;;;;;;;;;5033186;28;20774;-87
2022/12/10 11:56:29;;;;;;;37.50;24.40;;;;;;;;;;5057793;28;20209;-86
2022/12/10 11:59:05;;;;;;;30.63;16.63;;;;;;;;;;5064468;28;20209;-86
2022/12/10 12:01:47;;;;;;;19.53;12.27;;;;;;;;;;5053551;28;20209;-86
2022/12/10 12:04:29;;;;;;;16.17;11.90;;;;;;;;;;5061771;28;20227;-86
2022/12/10 12:07:15;;;;;;;19.60;12.70;;;;;;;;;;5053282;28;20217;-86
2022/12/10 12:09:52;;;;;;;20.53;13.00;;;;;;;;;;5027382;28;20212;-86
2022/12/10 12:12:27;;;;;;;24.50;15.63;;;;;;;;;;5033516;28;20212;-86
2022/12/10 12:14:56;;;;;;;28.87;19.63;;;;;;;;;;5052240;28;20219;-86
2022/12/10 12:17:26;;;;;;;35.70;23.40;;;;;;;;;;5032679;28;20254;-86
2022/12/10 12:19:56;;;;;;;26.77;20.73;;;;;;;;;;5021745;28;20221;-85
2022/12/10 12:22:26;;;;;;;34.43;21.73;;;;;;;;;;5020037;28;20200;-86
2022/12/10 12:24:55;;;;;;;57.27;35.10;;;;;;;;;;5039249;28;20215;-86
2022/12/10 12:27:26;;;;;;;61.57;42.83;;;;;;;;;;5050590;28;20258;-86
2022/12/10 12:30:16;;;;;;;50.30;34.97;;;;;;;;;;5050760;28;20243;-85
2022/12/10 12:32:53;;;;;;;59.00;42.17;;;;;;;;;;5044896;28;20220;-86
2022/12/10 12:35:24;;;;;;;49.47;39.73;;;;;;;;;;5034737;28;20644;-85
2022/12/10 12:37:56;;;;;;;35.10;23.43;;;;;;;;;;5042842;28;20607;-86
2022/12/10 12:40:29;;;;;;;29.47;17.77;;;;;;;;;;5035091;28;20638;-86
2022/12/10 12:43:02;;;;;;;33.67;24.60;;;;;;;;;;5041595;28;20301;-87
2022/12/10 12:45:39;;;;;;;31.87;24.07;;;;;;;;;;5043367;28;20196;-92
2022/12/10 12:48:17;;;;;;;35.33;22.63;;;;;;;;;;5034757;28;20278;-85
2022/12/10 12:50:48;;;;;;;32.00;22.47;;;;;;;;;;5049778;28;20592;-87
2022/12/10 12:53:16;;;;;;;30.63;21.57;;;;;;;;;;5040275;28;20233;-86
2022/12/10 12:55:52;;;;;;;20.20;13.00;;;;;;;;;;5044336;28;20207;-86
2022/12/10 12:58:26;;;;;;;14.17;10.27;;;;;;;;;;5022884;28;20216;-86
2022/12/10 13:00:57;;;;;;;17.93;10.83;;;;;;;;;;5054970;28;20210;-86
2022/12/10 13:03:34;;;;;;;20.30;12.27;;;;;;;;;;5032562;28;20708;-85
2022/12/10 13:06:34;;;;;;;20.27;14.67;;;;;;;;;;5043221;28;20286;-86
2022/12/10 13:09:33;;;;;;;24.63;16.10;;;;;;;;;;5037901;28;20206;-87
2022/12/10 13:12:28;;;;;;;21.50;14.43;;;;;;;;;;5037723;28;20216;-87
2022/12/10 13:15:05;;;;;;;20.63;13.33;;;;;;;;;;5043012;28;20350;-86
2022/12/10 13:17:34;;;;;;;21.70;17.43;;;;;;;;;;5026480;28;20213;-86
2022/12/10 13:20:27;;;;;;;28.13;19.93;;;;;;;;;;5046963;28;20210;-86
2022/12/10 13:22:59;;;;;;;18.57;13.53;;;;;;;;;;5048514;28;20205;-86
2022/12/10 13:25:40;;;;;;;19.77;12.63;;;;;;;;;;5030530;28;20210;-85
2022/12/10 13:28:23;;;;;;;21.57;13.87;;;;;;;;;;5044614;28;20206;-88
2022/12/10 13:31:09;;;;;;;29.43;19.30;;;;;;;;;;5046818;28;20206;-87
2022/12/10 13:33:47;;;;;;;30.87;19.67;;;;;;;;;;5050432;28;20302;-87
2022/12/10 13:36:14;;;;;;;21.00;16.17;;;;;;;;;;5053422;28;20632;-87
2022/12/10 13:38:56;;;;;;;22.00;13.13;;;;;;;;;;5036073;28;20202;-88
2022/12/10 13:44:28;;;;;;;37.80;25.13;;;;;;;;;;5058799;28;20778;-88
2022/12/10 13:46:58;;;;;;;36.37;21.30;;;;;;;;;;5054600;28;20198;-88
2022/12/10 13:49:27;;;;;;;27.20;19.03;;;;;;;;;;5052868;28;20635;-87
2022/12/10 13:52:02;;;;;;;22.63;16.53;;;;;;;;;;5053343;28;20225;-87
2022/12/10 13:55:21;;;;;;;20.07;15.00;;;;;;;;;;5054159;28;20315;-87
2022/12/10 13:58:22;;;;;;;31.87;17.90;;;;;;;;;;5052865;28;20263;-87
2022/12/10 14:00:56;;;;;;;58.90;35.93;;;;;;;;;;5034977;28;20213;-87
2022/12/10 14:03:41;;;;;;;83.97;46.13;;;;;;;;;;5039090;28;20673;-87
2022/12/10 14:06:15;;;;;;;120.47;59.50;;;;;;;;;;5047257;28;20206;-88
2022/12/10 14:08:52;;;;;;;125.63;65.27;;;;;;;;;;5033563;28;20642;-87
2022/12/10 14:11:22;;;;;;;102.37;58.87;;;;;;;;;;5051592;28;20753;-87
2022/12/10 14:13:53;;;;;;;28.50;17.83;;;;;;;;;;5047818;28;20236;-89
2022/12/10 14:16:23;;;;;;;26.27;20.37;;;;;;;;;;5056933;28;20568;-87
2022/12/10 14:18:55;;;;;;;26.97;16.13;;;;;;;;;;5060568;28;20668;-87
2022/12/10 14:21:24;;;;;;;15.80;13.00;;;;;;;;;;5047642;28;20659;-87
2022/12/10 14:23:51;;;;;;;18.17;14.10;;;;;;;;;;5055278;28;20655;-87
2022/12/10 14:26:21;;;;;;;17.60;11.07;;;;;;;;;;5034337;28;20605;-87
2022/12/10 14:28:49;;;;;;;16.10;9.30;;;;;;;;;;5033309;28;20317;-87
2022/12/10 14:31:18;;;;;;;16.30;9.60;;;;;;;;;;5046037;28;20622;-87
2022/12/10 14:33:51;;;;;;;15.33;8.97;;;;;;;;;;5051593;28;20229;-88
2022/12/10 14:36:23;;;;;;;12.30;7.93;;;;;;;;;;5040427;28;20209;-89
2022/12/10 14:38:51;;;;;;;11.27;7.57;;;;;;;;;;5055911;28;20749;-87
2022/12/10 14:41:20;;;;;;;10.77;6.90;;;;;;;;;;5034800;28;20229;-88
2022/12/10 14:43:48;;;;;;;13.80;8.00;;;;;;;;;;5052349;28;20259;-87
2022/12/10 14:46:20;;;;;;;11.87;8.80;;;;;;;;;;5054497;28;20208;-86
2022/12/10 14:48:50;;;;;;;10.50;6.03;;;;;;;;;;5052928;28;20212;-87
2022/12/10 14:51:19;;;;;;;11.20;8.33;;;;;;;;;;5050792;28;20233;-87